• Join FlightAware (Why Join?)
  • Login
  • US Flag 
10:01AM EST


 

Airport Tracker/Info


-or-


 

Live Flight TrackerFlight Track Log ✈ C-GKZT ✈ 03-Jul-2014 ✈ CYBF - CYEG

Flight Track Log - Related Links

Times and Time Zones

All times are in EDT time to prevent confusion due to time zone crossing. See the C-GKZT flight status page for this flight to view local times or setup timezone preferences in your user account.

Time Position Orientation Groundspeed Altitude Reporting Facility
EDT Latitude Longitude Course Direction KTS MPH feet Rate Location/Type
05:06PM 54.1000 -110.8833 220° Southwest 300 345 7,700  Level Edmonton Center
05:07PM 54.0333 -110.9667 216° Southwest 250 288 8,700 1,140 Climbing Edmonton Center
05:09PM 53.9333 -111.1500 227° Southwest 270 311 11,200 1,260 Climbing Edmonton Center
05:10PM 53.8667 -111.2333 216° Southwest 280 322 12,500 1,260 Climbing Edmonton Center
05:11PM 53.8014 -111.4383 220° Southwest  Level FlightAware Approximate
05:12PM 53.7389 -111.5256 220° Southwest  Level FlightAware Approximate
05:12PM 53.8000 -111.4667 244° Southwest 290 334 15,100  Level Edmonton Center
05:13PM 53.7667 -111.6167 249° West 290 334 16,600 1,560 Climbing Edmonton Center
05:14PM 53.7667 -111.7333 270° West 290 334 18,300 1,380 Climbing Edmonton Center
05:15PM 53.7333 -111.8667 247° West 290 334 19,400 840 Climbing Edmonton Center
05:16PM 53.7167 -112.0000 258° West 300 345 20,000 180 Climbing Edmonton Center
05:18PM 53.6500 -112.3167 251° West 340 391 20,000 -300 Level Edmonton Center
05:19PM 53.6167 -112.4500 247° West 340 391 19,100 -1,620 Descending Edmonton Center
05:20PM 53.5833 -112.6167 251° West 340 391 16,800 -2,160 Descending Edmonton Center
05:21PM 53.5667 -112.7500 258° West 320 368 14,800 -2,100 Descending Edmonton Center
05:22PM 53.5333 -112.9167 251° West 320 368 12,600 -2,100 Descending Edmonton Center
05:23PM 53.5000 -113.0500 247° West 310 357 10,600 -1,980 Descending Edmonton Center
05:24PM 53.5000 -113.2000 270° West 280 322 8,700 -1,800 Descending Edmonton Center
05:25PM 53.4667 -113.3000 241° Southwest 250 288 7,100 -1,680 Descending Edmonton Center
05:26PM 53.4500 -113.3833 251° West 230 265 5,400 -1,320 Descending Edmonton Center
05:27PM 53.4000 -113.4667 225° Southwest 200 230 4,500 -900 Descending Edmonton Center
05:28PM 53.3667 -113.5167 222° Southwest 170 196 3,700 -600 Descending Edmonton Center
05:31PM 53.2833 -113.6000 172° South 120 138 2,300 -480 Descending Edmonton Center